Time;durP1;ratioP1;P1;durP2;ratioP2;P2;SDS_P1;SDS_P2;PMS_P1;PMS_P2;Temp;Humidity;BMP_temperature;BMP_pressure;BME280_temperature;BME280_humidity;BME280_pressure;Samples;Min_cycle;Max_cycle;Signal;HPM_P1;HPM_P2
2023/03/12 00:00:14;;;;;;;51.93;15.50;;;1.60;92.70;;;;;;5061257;28;20545;-59
2023/03/12 00:02:41;;;;;;;42.17;13.57;;;;;;;;;;5058102;28;20507;-58
2023/03/12 00:05:08;;;;;;;48.83;15.27;;;;;;;;;;5059347;28;20539;-59
2023/03/12 00:07:37;;;;;;;27.63;10.40;;;1.80;92.40;;;;;;5024329;28;20494;-59
2023/03/12 00:10:04;;;;;;;62.83;17.90;;;;;;;;;;5058501;28;20486;-59
2023/03/12 00:12:32;;;;;;;36.60;11.77;;;1.90;92.10;;;;;;5049625;28;20480;-60
2023/03/12 00:14:59;;;;;;;50.93;15.77;;;1.80;92.30;;;;;;5059425;28;20467;-59
2023/03/12 00:17:25;;;;;;;37.90;12.03;;;1.70;92.40;;;;;;5047520;28;20844;-60
2023/03/12 00:19:52;;;;;;;50.57;14.80;;;1.70;92.30;;;;;;5052495;28;20991;-59
2023/03/12 00:22:21;;;;;;;36.60;11.33;;;;;;;;;;5066016;28;20467;-59
2023/03/12 00:24:50;;;;;;;38.43;11.83;;;1.70;92.00;;;;;;5052337;28;20545;-59
2023/03/12 00:27:17;;;;;;;49.50;13.87;;;;;;;;;;5047389;28;20558;-60
2023/03/12 00:29:45;;;;;;;54.60;14.33;;;1.70;91.90;;;;;;5047576;28;20497;-60
2023/03/12 00:32:12;;;;;;;47.30;14.50;;;1.50;92.20;;;;;;5056398;28;20486;-60
2023/03/12 00:34:39;;;;;;;34.40;9.90;;;1.50;92.60;;;;;;5060537;28;20509;-60
2023/03/12 00:37:06;;;;;;;59.60;18.00;;;1.30;93.10;;;;;;5051273;28;20474;-60
2023/03/12 00:39:34;;;;;;;38.13;12.90;;;1.30;93.30;;;;;;5065680;28;20478;-59
2023/03/12 00:42:01;;;;;;;38.93;12.30;;;1.30;93.50;;;;;;5056040;28;20600;-59
2023/03/12 00:44:27;;;;;;;32.20;12.27;;;1.20;93.70;;;;;;5056240;28;20822;-59
2023/03/12 00:46:55;;;;;;;33.60;12.20;;;-0.10;93.20;;;;;;5043984;28;20470;-59
2023/03/12 00:49:22;;;;;;;35.27;12.47;;;;;;;;;;5060532;28;21004;-59
2023/03/12 00:51:49;;;;;;;40.97;13.23;;;1.20;94.10;;;;;;5066230;28;20551;-59
2023/03/12 00:54:16;;;;;;;48.77;13.93;;;1.20;93.90;;;;;;5048610;28;20530;-59
2023/03/12 00:56:42;;;;;;;37.27;13.80;;;1.10;94.50;;;;;;5051062;28;20802;-60
2023/03/12 00:59:09;;;;;;;57.13;19.27;;;1.00;94.90;;;;;;5061174;28;20483;-59
2023/03/12 01:01:35;;;;;;;35.50;13.27;;;1.00;95.00;;;;;;5045428;28;20716;-60
2023/03/12 01:04:04;;;;;;;48.07;15.17;;;;;;;;;;5064139;28;20482;-60
2023/03/12 01:06:31;;;;;;;43.70;13.27;;;1.20;94.70;;;;;;5055979;28;20543;-59
2023/03/12 01:08:58;;;;;;;54.67;16.87;;;1.30;94.60;;;;;;5067796;28;20491;-59
2023/03/12 01:11:25;;;;;;;37.10;13.07;;;3.00;95.10;;;;;;5056545;28;20520;-59
2023/03/12 01:13:52;;;;;;;53.03;15.30;;;;;;;;;;5042766;28;20555;-60
2023/03/12 01:16:19;;;;;;;50.80;15.10;;;;;;;;;;5065320;28;20487;-60
2023/03/12 01:18:46;;;;;;;31.90;12.00;;;1.90;93.90;;;;;;5062291;28;20750;-59
2023/03/12 01:21:14;;;;;;;55.87;18.00;;;2.00;93.90;;;;;;5048877;28;20532;-59
2023/03/12 01:23:40;;;;;;;31.33;11.60;;;2.10;93.80;;;;;;5064074;28;20489;-60
2023/03/12 01:26:07;;;;;;;55.60;15.73;;;2.10;93.90;;;;;;5055015;28;20531;-60
2023/03/12 01:28:34;;;;;;;41.77;13.60;;;2.00;94.30;;;;;;5055041;28;20898;-60
2023/03/12 01:31:07;;;;;;;45.40;15.83;;;2.00;94.40;;;;;;5062547;28;20884;-59
2023/03/12 01:33:33;;;;;;;34.97;11.50;;;2.00;94.30;;;;;;5061760;28;20478;-59
2023/03/12 01:36:00;;;;;;;46.13;16.37;;;2.10;94.20;;;;;;5058313;28;20479;-60
2023/03/12 01:38:28;;;;;;;41.53;14.30;;;2.20;94.20;;;;;;5063603;28;20474;-58
2023/03/12 01:40:55;;;;;;;42.53;11.10;;;;;;;;;;5062921;28;20490;-59
2023/03/12 01:43:28;;;;;;;42.83;14.40;;;2.20;94.40;;;;;;5059445;28;20478;-59
2023/03/12 01:46:13;;;;;;;33.77;13.17;;;2.30;94.40;;;;;;5059877;28;21234;-59
2023/03/12 01:48:42;;;;;;;36.43;13.20;;;2.40;94.20;;;;;;5055949;28;21044;-59
2023/03/12 01:51:11;;;;;;;53.33;18.03;;;;;;;;;;5048075;28;20773;-60
2023/03/12 01:53:42;;;;;;;38.10;14.20;;;2.60;94.00;;;;;;5067501;28;20790;-58
2023/03/12 01:56:10;;;;;;;51.93;17.03;;;2.60;93.90;;;;;;5027747;28;20532;-59
2023/03/12 01:58:40;;;;;;;30.20;11.87;;;5.20;94.80;;;;;;5063948;28;20474;-59
2023/03/12 02:01:07;;;;;;;49.93;17.47;;;2.70;93.80;;;;;;5052629;28;20478;-59
2023/03/12 02:03:35;;;;;;;36.43;15.13;;;2.70;93.80;;;;;;5068652;28;20837;-59
2023/03/12 02:06:06;;;;;;;49.73;17.37;;;2.70;93.90;;;;;;5048183;28;20479;-60
2023/03/12 02:08:37;;;;;;;35.33;13.63;;;2.60;94.00;;;;;;5060725;28;20674;-59
2023/03/12 02:11:05;;;;;;;59.03;16.73;;;2.70;94.20;;;;;;5045497;28;20536;-59
2023/03/12 02:13:32;;;;;;;44.43;13.17;;;2.70;94.00;;;;;;5062777;28;20479;-59
2023/03/12 02:15:59;;;;;;;45.53;13.90;;;2.70;93.90;;;;;;5032678;28;20479;-59
2023/03/12 02:18:26;;;;;;;40.00;12.50;;;1.50;93.50;;;;;;5052287;28;20489;-60
2023/03/12 02:21:02;;;;;;;39.73;12.33;;;2.80;94.00;;;;;;5057916;28;21177;-59
2023/03/12 02:23:33;;;;;;;42.03;12.60;;;2.80;94.00;;;;;;5057275;28;20473;-60
2023/03/12 02:26:03;;;;;;;48.07;15.57;;;2.80;94.10;;;;;;5057810;28;20532;-60
2023/03/12 02:28:30;;;;;;;35.47;12.40;;;2.60;93.90;;;;;;5053663;28;20491;-59
2023/03/12 02:30:59;;;;;;;41.40;14.90;;;;;;;;;;5058345;28;20944;-60
2023/03/12 02:33:26;;;;;;;40.93;12.90;;;2.70;94.30;;;;;;5041464;28;20516;-60
2023/03/12 02:35:53;;;;;;;40.90;14.40;;;2.70;94.20;;;;;;5053723;28;20607;-60
2023/03/12 02:38:32;;;;;;;38.57;13.13;;;;;;;;;;5052027;28;20944;-60
2023/03/12 02:41:03;;;;;;;56.93;15.20;;;2.90;94.30;;;;;;5055027;28;20827;-60
2023/03/12 02:43:30;;;;;;;38.43;13.47;;;3.00;94.30;;;;;;5061745;28;20573;-60
2023/03/12 02:45:57;;;;;;;37.53;12.27;;;3.00;94.20;;;;;;5038496;28;20543;-60
2023/03/12 02:48:24;;;;;;;41.80;13.33;;;0.00;92.80;;;;;;5050318;28;20483;-60
2023/03/12 02:50:50;;;;;;;40.27;13.53;;;3.10;94.10;;;;;;5054260;28;20918;-60
2023/03/12 02:53:17;;;;;;;52.57;14.40;;;3.10;94.00;;;;;;5045108;28;21085;-60
2023/03/12 02:55:44;;;;;;;31.63;11.43;;;;;;;;;;5056230;28;21047;-60
2023/03/12 02:58:12;;;;;;;51.00;16.57;;;3.20;94.00;;;;;;5065213;28;20479;-60
2023/03/12 03:00:39;;;;;;;28.77;10.20;;;3.20;93.90;;;;;;5043609;28;20486;-60
2023/03/12 03:03:05;;;;;;;53.37;17.20;;;3.00;94.00;;;;;;5053003;28;20475;-60
2023/03/12 03:05:32;;;;;;;39.77;12.40;;;2.90;94.60;;;;;;5047672;28;20478;-60
2023/03/12 03:08:02;;;;;;;60.90;17.17;;;3.00;94.60;;;;;;5047117;28;20474;-60
2023/03/12 03:10:28;;;;;;;44.30;15.70;;;3.00;94.40;;;;;;5054414;28;21067;-59
2023/03/12 03:12:56;;;;;;;40.13;14.10;;;3.10;94.60;;;;;;5046461;28;21043;-59
2023/03/12 03:15:24;;;;;;;46.93;14.70;;;3.10;94.60;;;;;;5046878;28;20491;-60
2023/03/12 03:17:51;;;;;;;34.23;11.50;;;3.00;94.70;;;;;;5060793;28;20503;-60
2023/03/12 03:20:18;;;;;;;40.83;14.17;;;3.00;94.80;;;;;;5062995;28;20475;-60
2023/03/12 03:22:45;;;;;;;50.30;11.27;;;3.00;94.90;;;;;;5019317;28;20494;-60
2023/03/12 03:25:12;;;;;;;48.30;16.93;;;3.10;94.70;;;;;;5026056;28;20478;-60
2023/03/12 03:27:39;;;;;;;45.53;12.80;;;;;;;;;;5050864;28;20494;-59
2023/03/12 03:30:08;;;;;;;45.43;17.77;;;3.30;94.70;;;;;;5064280;28;20487;-59
2023/03/12 03:32:36;;;;;;;28.50;10.60;;;;;;;;;;5057905;28;20478;-59
2023/03/12 03:35:03;;;;;;;61.30;18.93;;;3.90;95.20;;;;;;5044733;28;20543;-60
2023/03/12 03:37:30;;;;;;;36.70;13.53;;;;;;;;;;5061356;28;20466;-60
2023/03/12 03:39:57;;;;;;;37.57;13.00;;;3.50;95.10;;;;;;5053118;28;21020;-60
2023/03/12 03:42:23;;;;;;;33.33;11.67;;;3.50;95.10;;;;;;5052764;28;20781;-60
2023/03/12 03:44:50;;;;;;;37.90;11.10;;;3.60;95.10;;;;;;5058381;28;20585;-60
2023/03/12 03:47:17;;;;;;;38.10;11.47;;;3.60;95.10;;;;;;5059653;28;20540;-60
2023/03/12 03:49:45;;;;;;;36.80;10.77;;;3.50;95.30;;;;;;5072881;28;20463;-60
2023/03/12 03:52:11;;;;;;;34.87;10.60;;;3.50;95.40;;;;;;5047343;28;20497;-60
2023/03/12 03:54:38;;;;;;;31.30;9.80;;;3.50;95.50;;;;;;5074498;28;20530;-60
2023/03/12 03:57:05;;;;;;;37.27;12.00;;;3.50;95.70;;;;;;5073131;28;20482;-60
2023/03/12 03:59:32;;;;;;;27.20;7.67;;;3.40;95.30;;;;;;5066195;28;20482;-60
2023/03/12 04:02:01;;;;;;;40.93;11.47;;;;;;;;;;5063349;28;20935;-60
2023/03/12 04:04:30;;;;;;;29.87;9.80;;;3.40;95.90;;;;;;5074747;28;20479;-60
2023/03/12 04:06:58;;;;;;;41.50;10.23;;;3.30;95.90;;;;;;5073065;28;20475;-59
2023/03/12 04:09:25;;;;;;;23.87;8.03;;;3.30;96.10;;;;;;5077345;28;20532;-59
2023/03/12 04:11:51;;;;;;;54.37;12.73;;;3.40;96.00;;;;;;5076305;28;20470;-60
2023/03/12 04:14:18;;;;;;;36.60;10.47;;;3.40;96.10;;;;;;5050962;28;21101;-60
2023/03/12 04:16:45;;;;;;;36.50;9.33;;;3.40;96.10;;;;;;5070354;28;20862;-60
2023/03/12 04:19:12;;;;;;;37.73;10.97;;;;;;;;;;5074201;28;20490;-60
2023/03/12 04:21:39;;;;;;;37.80;9.23;;;;;;;;;;5075533;28;20479;-60
2023/03/12 04:24:08;;;;;;;46.40;15.23;;;3.60;96.20;;;;;;5074339;28;20995;-60
2023/03/12 04:26:35;;;;;;;32.83;9.70;;;;;;;;;;5060912;28;20986;-59
2023/03/12 04:29:02;;;;;;;41.33;14.47;;;;;;;;;;5072440;28;20947;-59
2023/03/12 04:31:28;;;;;;;46.03;7.93;;;3.80;96.30;;;;;;5063430;28;20869;-60
2023/03/12 04:33:56;;;;;;;34.87;10.60;;;;;;;;;;5053298;28;20547;-60
2023/03/12 04:36:22;;;;;;;31.37;10.37;;;3.80;96.30;;;;;;5072892;28;20482;-59
2023/03/12 04:38:49;;;;;;;20.00;7.70;;;2.40;95.70;;;;;;5069861;28;20474;-60
2023/03/12 04:41:17;;;;;;;34.63;10.47;;;3.90;96.40;;;;;;5072275;28;20474;-60
2023/03/12 04:43:44;;;;;;;39.40;12.30;;;3.80;96.30;;;;;;5072190;28;20845;-60
2023/03/12 04:46:11;;;;;;;48.27;15.57;;;;;;;;;;5074180;28;20982;-59
2023/03/12 04:48:38;;;;;;;21.27;7.10;;;;;;;;;;5074457;28;20478;-60
2023/03/12 04:51:05;;;;;;;32.27;10.87;;;4.00;96.40;;;;;;5063896;28;20482;-60
2023/03/12 04:53:32;;;;;;;30.60;9.40;;;4.00;96.50;;;;;;5060455;28;20475;-60
2023/03/12 04:55:59;;;;;;;33.97;12.97;;;;;;;;;;5065258;28;21055;-60
2023/03/12 04:58:27;;;;;;;28.27;10.07;;;4.00;96.40;;;;;;5071110;28;20490;-59
2023/03/12 05:00:54;;;;;;;22.73;8.57;;;;;;;;;;5070353;28;21002;-59
2023/03/12 05:03:22;;;;;;;41.60;13.30;;;4.00;96.50;;;;;;5067836;28;20473;-60
2023/03/12 05:05:49;;;;;;;34.43;10.70;;;3.90;96.80;;;;;;5061739;28;20474;-60
2023/03/12 05:08:16;;;;;;;33.33;10.17;;;;;;;;;;5052520;28;20514;-59
2023/03/12 05:10:44;;;;;;;23.00;8.53;;;3.60;97.50;;;;;;5040047;28;20527;-60
2023/03/12 05:13:15;;;;;;;47.43;14.40;;;;;;;;;;5059985;28;20482;-59
2023/03/12 05:15:44;;;;;;;39.43;10.10;;;3.40;98.00;;;;;;5067208;28;20474;-60
2023/03/12 05:18:11;;;;;;;37.23;12.87;;;3.30;98.40;;;;;;5068116;28;20888;-59
2023/03/12 05:20:38;;;;;;;30.53;10.50;;;;;;;;;;5060824;28;20545;-60
2023/03/12 05:23:05;;;;;;;38.80;13.70;;;;;;;;;;5055625;28;20504;-60
2023/03/12 05:25:32;;;;;;;26.43;9.20;;;3.50;98.50;;;;;;5069914;28;20498;-60
2023/03/12 05:28:00;;;;;;;26.00;9.97;;;3.60;98.10;;;;;;5039834;28;20495;-60
2023/03/12 05:30:26;;;;;;;37.73;12.00;;;3.70;98.40;;;;;;5071594;28;21031;-60
2023/03/12 05:32:54;;;;;;;42.17;10.77;;;3.80;98.10;;;;;;5039686;28;21038;-59
2023/03/12 05:35:23;;;;;;;34.57;12.27;;;3.90;98.00;;;;;;5044104;28;20487;-59
2023/03/12 05:37:50;;;;;;;35.20;10.40;;;;;;;;;;5062426;28;20486;-60
2023/03/12 05:40:17;;;;;;;29.03;9.67;;;;;;;;;;5058919;28;20467;-60
2023/03/12 05:42:44;;;;;;;30.93;10.30;;;4.10;97.90;;;;;;5070570;28;20474;-60
2023/03/12 05:45:11;;;;;;;51.63;16.37;;;4.20;97.80;;;;;;5067471;28;20531;-59
2023/03/12 05:47:38;;;;;;;23.83;8.93;;;4.20;97.70;;;;;;5073927;28;20486;-60
2023/03/12 05:50:08;;;;;;;40.23;15.27;;;;;;;;;;5061715;28;20539;-59
2023/03/12 05:52:35;;;;;;;31.57;10.40;;;4.30;97.50;;;;;;5058525;28;21003;-60
2023/03/12 05:55:01;;;;;;;35.37;11.87;;;4.40;97.50;;;;;;5062502;28;20526;-60
2023/03/12 05:57:28;;;;;;;31.53;11.00;;;4.40;97.50;;;;;;5048624;28;20551;-60
2023/03/12 05:59:54;;;;;;;37.73;11.00;;;4.40;97.50;;;;;;5055865;28;20905;-60
2023/03/12 06:02:21;;;;;;;50.87;10.27;;;4.40;97.60;;;;;;5072466;28;20508;-60
2023/03/12 06:04:48;;;;;;;42.73;10.53;;;;;;;;;;5057365;28;20498;-60
2023/03/12 06:07:16;;;;;;;41.13;12.13;;;4.20;98.00;;;;;;5071211;28;20872;-59
2023/03/12 06:09:43;;;;;;;29.60;8.67;;;4.10;98.50;;;;;;5038152;28;1081661;-60
2023/03/12 06:12:09;;;;;;;40.93;14.80;;;4.10;98.30;;;;;;5067524;28;20498;-59
2023/03/12 06:14:36;;;;;;;22.83;10.20;;;4.10;98.60;;;;;;5073007;28;20491;-60
2023/03/12 06:17:03;;;;;;;39.17;13.90;;;3.90;98.70;;;;;;5048523;28;20486;-59
2023/03/12 06:19:29;;;;;;;38.80;12.10;;;3.90;98.90;;;;;;5072622;28;20862;-59
2023/03/12 06:21:57;;;;;;;45.00;13.40;;;;;;;;;;5060196;28;20742;-59
2023/03/12 06:24:25;;;;;;;32.20;10.00;;;3.60;99.60;;;;;;5063773;28;21104;-59
2023/03/12 06:26:51;;;;;;;31.63;11.57;;;3.40;99.90;;;;;;5061708;28;20478;-59
2023/03/12 06:29:18;;;;;;;30.27;11.13;;;3.30;99.90;;;;;;5072289;28;20517;-58
2023/03/12 06:31:45;;;;;;;32.10;10.37;;;3.40;99.90;;;;;;5058438;28;20493;-59
2023/03/12 06:34:12;;;;;;;52.10;17.03;;;;;;;;;;5078820;28;20501;-59
2023/03/12 06:36:39;;;;;;;30.03;12.00;;;;;;;;;;5087432;28;21005;-59
2023/03/12 06:39:07;;;;;;;42.00;13.07;;;3.70;99.90;;;;;;5062541;28;20480;-59
2023/03/12 06:41:36;;;;;;;20.60;8.30;;;;;;;;;;5048532;28;20490;-59
2023/03/12 06:44:04;;;;;;;53.47;18.23;;;3.80;99.90;;;;;;5026714;28;20766;-59
2023/03/12 06:46:32;;;;;;;27.17;8.70;;;3.90;99.90;;;;;;5065812;28;20888;-60
2023/03/12 06:48:58;;;;;;;44.27;14.07;;;3.90;99.90;;;;;;5084645;28;20555;-60
2023/03/12 06:51:25;;;;;;;23.17;8.67;;;3.80;99.90;;;;;;5061563;28;21338;-60
2023/03/12 06:53:52;;;;;;;39.50;12.37;;;;;;;;;;5040543;28;20482;-59
2023/03/12 06:56:19;;;;;;;42.20;13.50;;;3.80;99.90;;;;;;5072430;28;20483;-60
2023/03/12 06:58:47;;;;;;;26.23;10.30;;;3.70;99.90;;;;;;5069084;28;20481;-60
2023/03/12 07:01:14;;;;;;;30.03;10.77;;;;;;;;;;5060277;28;21012;-60
2023/03/12 07:03:41;;;;;;;27.60;11.67;;;;;;;;;;5062329;28;20479;-60
2023/03/12 07:06:13;;;;;;;56.17;17.40;;;;;;;;;;5073132;28;20521;-60
2023/03/12 07:08:40;;;;;;;34.23;9.57;;;3.80;99.90;;;;;;5074448;28;20470;-60
2023/03/12 07:11:06;;;;;;;55.27;16.00;;;3.80;99.90;;;;;;5092148;28;20473;-59
2023/03/12 07:13:33;;;;;;;24.23;9.57;;;3.80;99.90;;;;;;5083013;28;20470;-60
2023/03/12 07:16:01;;;;;;;50.93;15.90;;;3.90;99.90;;;;;;5072616;28;20567;-60
2023/03/12 07:18:28;;;;;;;36.90;10.93;;;;;;;;;;5060192;28;20970;-60
2023/03/12 07:20:55;;;;;;;28.27;9.90;;;;;;;;;;5065138;28;20789;-60
2023/03/12 07:23:22;;;;;;;38.03;11.20;;;3.80;99.90;;;;;;5051854;28;20487;-60
2023/03/12 07:25:50;;;;;;;37.77;13.80;;;3.80;99.90;;;;;;5056525;28;20475;-60
2023/03/12 07:28:18;;;;;;;29.97;10.70;;;3.80;99.90;;;;;;5072641;28;20508;-60
2023/03/12 07:30:49;;;;;;;30.87;11.70;;;3.80;99.90;;;;;;5072149;28;20478;-60
2023/03/12 07:33:18;;;;;;;36.30;13.97;;;3.80;99.90;;;;;;5064079;28;20467;-60
2023/03/12 07:35:46;;;;;;;34.23;12.63;;;;;;;;;;5066494;28;21058;-59
2023/03/12 07:38:13;;;;;;;49.47;16.70;;;;;;;;;;5050581;28;20584;-60
2023/03/12 07:40:40;;;;;;;32.20;12.20;;;3.90;99.90;;;;;;5040688;28;20972;-59
2023/03/12 07:43:10;;;;;;;47.67;16.40;;;4.00;99.90;;;;;;5057494;28;20519;-60
2023/03/12 07:45:37;;;;;;;22.60;10.70;;;4.00;99.90;;;;;;5067693;28;20478;-59
2023/03/12 07:48:03;;;;;;;63.00;19.00;;;4.20;99.90;;;;;;5057884;28;20500;-60
2023/03/12 07:50:32;;;;;;;40.30;12.50;;;4.30;99.90;;;;;;5044710;28;21191;-60
2023/03/12 07:52:59;;;;;;;42.40;14.40;;;;;;;;;;5070059;28;20572;-59
2023/03/12 07:55:26;;;;;;;41.50;14.30;;;;;;;;;;5059531;28;20961;-60
2023/03/12 07:57:55;;;;;;;38.80;12.83;;;4.70;99.90;;;;;;5067056;28;21044;-59
2023/03/12 08:00:22;;;;;;;34.17;12.70;;;4.80;99.90;;;;;;5059415;28;20486;-60
2023/03/12 08:02:49;;;;;;;38.53;11.87;;;;;;;;;;5043468;28;20799;-59
2023/03/12 08:05:16;;;;;;;31.23;12.20;;;;;;;;;;5040227;28;20917;-59
2023/03/12 08:07:44;;;;;;;25.43;11.23;;;5.00;99.90;;;;;;5062292;28;20490;-60
2023/03/12 08:10:12;;;;;;;46.13;16.50;;;5.10;99.90;;;;;;5043185;28;20932;-59
2023/03/12 08:12:38;;;;;;;37.43;12.40;;;1.10;99.90;;;;;;5063102;28;20479;-60
2023/03/12 08:15:07;;;;;;;55.90;19.40;;;;;;;;;;5071952;28;20543;-60
2023/03/12 08:17:34;;;;;;;38.77;12.00;;;;;;;;;;5046793;28;20475;-60
2023/03/12 08:20:00;;;;;;;42.60;15.50;;;5.10;99.90;;;;;;5072188;28;20487;-59
2023/03/12 08:22:27;;;;;;;37.97;14.53;;;5.20;99.90;;;;;;5056626;28;20524;-60
2023/03/12 08:24:55;;;;;;;34.57;12.80;;;;;;;;;;5061879;28;20479;-60
2023/03/12 08:27:22;;;;;;;40.93;14.17;;;5.40;99.90;;;;;;5064486;28;20486;-60
2023/03/12 08:29:49;;;;;;;45.53;14.23;;;5.50;99.90;;;;;;5056749;28;20504;-60
2023/03/12 08:32:15;;;;;;;42.17;12.77;;;5.70;99.90;;;;;;5066633;28;20470;-60
2023/03/12 08:34:42;;;;;;;28.90;10.70;;;5.80;99.90;;;;;;5070364;28;20466;-60
2023/03/12 08:37:09;;;;;;;46.27;17.00;;;5.90;99.90;;;;;;5071217;28;20983;-60
2023/03/12 08:39:35;;;;;;;34.97;12.97;;;6.00;99.90;;;;;;5063293;28;20471;-60
2023/03/12 08:42:05;;;;;;;44.43;15.93;;;6.10;99.90;;;;;;5046818;28;20828;-60
2023/03/12 08:44:32;;;;;;;30.43;12.37;;;6.30;99.90;;;;;;5062479;28;20807;-60
2023/03/12 08:46:59;;;;;;;39.27;16.70;;;;;;;;;;5060873;28;20474;-60
2023/03/12 08:49:26;;;;;;;42.03;15.10;;;;;;;;;;5069666;28;20596;-60
2023/03/12 08:51:53;;;;;;;31.83;9.00;;;;;;;;;;5055549;28;20490;-60
2023/03/12 08:54:20;;;;;;;29.20;9.00;;;;;;;;;;5062112;28;20588;-60
2023/03/12 08:56:50;;;;;;;27.10;9.80;;;7.40;99.90;;;;;;5065583;28;20486;-61
2023/03/12 08:59:19;;;;;;;31.53;10.53;;;7.60;99.90;;;;;;5073738;28;20545;-60
2023/03/12 09:01:46;;;;;;;21.10;9.30;;;7.80;99.90;;;;;;5060019;28;20535;-61
2023/03/12 09:04:12;;;;;;;37.87;12.90;;;8.10;99.90;;;;;;5060326;28;20523;-60
2023/03/12 09:06:40;;;;;;;25.93;9.63;;;;;;;;;;5069326;28;20478;-60
2023/03/12 09:09:07;;;;;;;38.90;15.30;;;;;;;;;;5071407;28;20969;-60
2023/03/12 09:11:38;;;;;;;34.00;11.17;;;8.40;99.90;;;;;;5065453;28;20477;-61
2023/03/12 09:14:05;;;;;;;43.43;16.10;;;8.50;99.90;;;;;;5062090;28;20878;-60
2023/03/12 09:16:33;;;;;;;31.23;10.27;;;8.60;99.90;;;;;;5047579;28;21095;-61
2023/03/12 09:19:00;;;;;;;36.53;14.03;;;8.70;99.90;;;;;;5069360;28;20563;-61
2023/03/12 09:21:27;;;;;;;33.00;10.10;;;;;;;;;;5059650;28;20499;-61
2023/03/12 09:23:54;;;;;;;36.03;12.67;;;;;;;;;;5075800;28;20619;-61
2023/03/12 09:26:20;;;;;;;35.50;11.87;;;9.00;99.90;;;;;;5057964;28;20493;-61
2023/03/12 09:28:47;;;;;;;27.77;11.97;;;9.10;99.90;;;;;;5059731;28;20494;-61
2023/03/12 09:31:14;;;;;;;42.83;14.60;;;9.10;99.90;;;;;;5071682;28;20478;-60
2023/03/12 09:33:42;;;;;;;31.03;14.07;;;9.10;99.90;;;;;;5063612;28;20567;-60
2023/03/12 09:36:09;;;;;;;38.10;14.33;;;9.20;99.90;;;;;;5063990;28;20490;-60
2023/03/12 09:38:36;;;;;;;34.33;9.43;;;9.20;99.90;;;;;;5058996;28;21008;-60
2023/03/12 09:41:04;;;;;;;30.33;12.30;;;9.30;99.90;;;;;;5056099;28;20536;-61
2023/03/12 09:43:37;;;;;;;26.13;9.93;;;9.30;99.90;;;;;;5078026;28;20508;-60
2023/03/12 09:46:04;;;;;;;39.03;14.00;;;;;;;;;;5041388;28;20536;-60
2023/03/12 09:48:34;;;;;;;24.77;8.60;;;9.50;99.90;;;;;;5063147;28;20482;-60
2023/03/12 09:51:08;;;;;;;42.63;14.27;;;9.50;99.90;;;;;;5074245;28;20483;-60
2023/03/12 09:53:39;;;;;;;30.13;11.80;;;;;;;;;;5064660;28;20506;-60
2023/03/12 09:56:12;;;;;;;40.30;14.33;;;9.60;99.90;;;;;;5056310;28;20503;-60
2023/03/12 09:58:41;;;;;;;47.73;7.37;;;;;;;;;;5053781;28;20764;-60
2023/03/12 10:01:19;;;;;;;34.83;13.27;;;9.70;99.90;;;;;;5044781;28;20482;-60
2023/03/12 10:03:58;;;;;;;28.10;10.07;;;;;;;;;;5072821;28;20845;-60
2023/03/12 10:06:29;;;;;;;22.23;9.87;;;9.90;99.90;;;;;;5044839;28;20532;-60
2023/03/12 10:09:05;;;;;;;27.80;9.57;;;9.90;99.90;;;;;;5059775;28;20518;-60
2023/03/12 10:11:41;;;;;;;15.93;6.87;;;10.00;99.90;;;;;;5082144;28;20470;-60
2023/03/12 10:14:19;;;;;;;27.20;11.00;;;10.10;99.90;;;;;;5062172;28;21220;-60
2023/03/12 10:17:00;;;;;;;22.70;10.90;;;10.20;99.90;;;;;;5067214;28;20804;-61
2023/03/12 10:19:54;;;;;;;22.43;7.50;;;10.20;99.90;;;;;;5046645;28;20971;-60
2023/03/12 10:22:39;;;;;;;20.23;8.67;;;10.30;99.90;;;;;;5061990;28;20882;-59
2023/03/12 10:25:15;;;;;;;35.37;11.83;;;10.30;99.90;;;;;;5058155;28;20486;-61
2023/03/12 10:27:44;;;;;;;29.80;11.07;;;;;;;;;;5057037;28;20618;-60
2023/03/12 10:30:17;;;;;;;32.17;11.30;;;10.40;99.90;;;;;;5069720;28;20975;-60
2023/03/12 10:32:46;;;;;;;22.83;8.60;;;;;;;;;;5067454;28;20478;-61
2023/03/12 10:35:16;;;;;;;38.63;13.87;;;10.40;99.90;;;;;;5059300;28;20485;-61
2023/03/12 10:37:47;;;;;;;31.90;10.17;;;10.50;99.90;;;;;;5057677;28;20486;-61
2023/03/12 10:40:16;;;;;;;35.23;11.63;;;10.40;99.90;;;;;;5055546;28;20528;-61
2023/03/12 10:42:43;;;;;;;35.60;11.90;;;10.40;99.90;;;;;;5073915;28;20475;-60
2023/03/12 10:45:31;;;;;;;30.33;12.77;;;10.40;99.90;;;;;;5072914;28;20483;-61
2023/03/12 10:47:59;;;;;;;28.27;10.80;;;;;;;;;;5072300;28;20482;-61
2023/03/12 10:50:28;;;;;;;31.40;11.00;;;10.50;99.90;;;;;;5066290;28;20477;-61
2023/03/12 10:53:14;;;;;;;52.07;13.00;;;10.50;99.90;;;;;;5052945;28;20954;-61
2023/03/12 10:55:41;;;;;;;34.93;7.83;;;10.70;99.90;;;;;;5055562;28;20520;-61
2023/03/12 10:58:22;;;;;;;35.93;11.83;;;10.80;99.90;;;;;;5058487;28;20479;-61
2023/03/12 11:00:55;;;;;;;23.10;8.77;;;;;;;;;;5059021;28;20816;-61
2023/03/12 11:03:22;;;;;;;33.13;11.50;;;11.20;99.90;;;;;;5061562;28;21014;-61
2023/03/12 11:05:52;;;;;;;40.10;10.40;;;11.40;99.90;;;;;;5063800;28;20484;-61
2023/03/12 11:08:23;;;;;;;32.43;10.37;;;;;;;;;;5056268;28;20474;-60
2023/03/12 11:10:50;;;;;;;28.70;8.17;;;;;;;;;;5065924;28;20894;-61
2023/03/12 11:13:30;;;;;;;30.67;7.73;;;11.90;99.90;;;;;;5069643;28;20474;-61
2023/03/12 11:15:57;;;;;;;33.47;9.80;;;;;;;;;;5070374;28;20491;-61
2023/03/12 11:18:28;;;;;;;34.47;7.70;;;12.00;99.90;;;;;;5047910;28;20525;-61
2023/03/12 11:20:56;;;;;;;27.10;8.20;;;12.10;99.90;;;;;;5061511;28;20498;-61
2023/03/12 11:23:26;;;;;;;19.90;6.90;;;;;;;;;;5057360;28;20493;-61
2023/03/12 11:25:56;;;;;;;36.13;9.10;;;14.80;99.90;;;;;;5055929;28;20509;-61
2023/03/12 11:28:27;;;;;;;25.10;9.30;;;12.10;99.90;;;;;;5066411;28;20479;-61
2023/03/12 11:30:58;;;;;;;35.00;7.67;;;12.20;99.90;;;;;;5057514;28;20848;-61
2023/03/12 11:33:25;;;;;;;27.13;8.90;;;;;;;;;;5031760;28;20531;-61
2023/03/12 11:35:57;;;;;;;36.00;10.27;;;;;;;;;;5041483;28;20536;-61
2023/03/12 11:38:39;;;;;;;29.27;7.63;;;12.30;99.90;;;;;;5026810;28;20478;-62
2023/03/12 11:41:20;;;;;;;33.13;11.93;;;12.60;99.90;;;;;;5046510;28;21381;-60
2023/03/12 11:43:54;;;;;;;26.30;8.70;;;;;;;;;;5050538;28;20539;-62
2023/03/12 11:46:30;;;;;;;34.30;8.97;;;13.10;99.90;;;;;;5016677;28;20480;-61
2023/03/12 11:49:09;;;;;;;27.27;8.90;;;13.10;99.90;;;;;;5069447;28;20474;-60
2023/03/12 11:51:42;;;;;;;23.87;7.20;;;;;;;;;;5070034;28;20479;-62
2023/03/12 11:54:47;;;;;;;30.03;8.20;;;12.90;99.90;;;;;;5050315;28;20905;-61
2023/03/12 11:57:23;;;;;;;37.13;9.50;;;13.00;99.90;;;;;;5016750;28;20486;-61
2023/03/12 12:00:08;;;;;;;34.77;9.77;;;13.10;99.90;;;;;;5043459;28;20475;-61
2023/03/12 12:02:56;;;;;;;34.03;5.07;;;13.30;99.90;;;;;;5039141;28;20487;-61
2023/03/12 12:05:26;;;;;;;23.57;8.93;;;;;;;;;;5042395;28;20587;-60
2023/03/12 12:08:00;;;;;;;26.93;9.03;;;;;;;;;;5059202;28;20478;-60
2023/03/12 12:10:32;;;;;;;22.00;6.80;;;;;;;;;;5063728;28;20473;-61
2023/03/12 12:13:08;;;;;;;43.60;8.83;;;13.70;99.90;;;;;;5053673;28;21195;-61
2023/03/12 12:15:39;;;;;;;34.57;8.90;;;;;;;;;;5070112;28;20823;-60
2023/03/12 12:18:25;;;;;;;22.33;9.13;;;14.10;99.90;;;;;;5071595;28;20503;-61
2023/03/12 12:20:57;;;;;;;22.70;7.17;;;;;;;;;;5067001;28;20568;-60
2023/03/12 12:23:40;;;;;;;23.83;6.33;;;15.10;99.70;;;;;;5077104;28;20478;-61
2023/03/12 12:26:13;;;;;;;43.30;12.20;;;14.00;98.40;;;;;;5060303;28;20485;-60
2023/03/12 12:29:18;;;;;;;22.43;5.97;;;13.80;98.40;;;;;;5057496;28;20506;-60
2023/03/12 12:31:50;;;;;;;26.70;6.83;;;13.60;99.60;;;;;;5061625;28;20485;-61
2023/03/12 12:34:46;;;;;;;18.77;7.13;;;13.40;99.10;;;;;;5055599;28;20500;-61
2023/03/12 12:37:25;;;;;;;30.07;6.57;;;;;;;;;;5055439;28;20462;-60
2023/03/12 12:39:58;;;;;;;31.50;7.70;;;12.80;99.70;;;;;;5058533;28;21085;-60
2023/03/12 12:42:32;;;;;;;20.97;5.57;;;12.70;99.90;;;;;;5061929;28;20535;-61
2023/03/12 12:45:01;;;;;;;40.07;11.30;;;12.70;99.90;;;;;;5063472;28;20931;-61
2023/03/12 12:47:37;;;;;;;38.93;8.57;;;12.80;99.90;;;;;;5077359;28;21037;-61
2023/03/12 12:50:04;;;;;;;31.97;11.10;;;12.90;99.90;;;;;;5066295;28;21152;-61
2023/03/12 12:52:31;;;;;;;25.87;7.17;;;13.00;99.90;;;;;;5078336;28;21097;-61
2023/03/12 12:55:06;;;;;;;27.57;8.40;;;13.20;99.90;;;;;;5061618;28;20508;-61
2023/03/12 12:57:39;;;;;;;24.63;6.23;;;13.30;99.70;;;;;;5074669;28;20589;-61
2023/03/12 13:00:20;;;;;;;33.90;10.53;;;;;;;;;;5070163;28;20542;-61
2023/03/12 13:02:47;;;;;;;31.83;9.77;;;;;;;;;;5065069;28;20508;-61
2023/03/12 13:05:27;;;;;;;30.87;8.83;;;13.80;99.30;;;;;;5074393;28;21010;-61
2023/03/12 13:07:55;;;;;;;33.27;6.93;;;;;;;;;;5061979;28;21018;-61
2023/03/12 13:10:43;;;;;;;30.87;8.23;;;13.90;98.10;;;;;;5049554;28;20478;-61
2023/03/12 13:13:17;;;;;;;23.27;8.70;;;14.00;98.80;;;;;;5065633;28;20531;-61